Time;durP1;ratioP1;P1;durP2;ratioP2;P2;SDS_P1;SDS_P2;PMS_P1;PMS_P2;Temp;Humidity;BMP_temperature;BMP_pressure;BME280_temperature;BME280_humidity;BME280_pressure;Samples;Min_cycle;Max_cycle;Signal;HPM_P1;HPM_P2
2023/02/24 00:01:36;;;;;;;4.38;1.08;;;5.00;99.90;;;;;;5014898;28;20063;-73
2023/02/24 00:04:07;;;;;;;9.25;1.40;;;4.90;99.90;;;;;;5017246;28;20018;-75
2023/02/24 00:06:37;;;;;;;;;;;4.90;99.90;;;;;;5014069;28;20055;-73
2023/02/24 00:09:07;;;;;;;7.22;1.00;;;5.00;99.90;;;;;;5002481;28;19906;-76
2023/02/24 00:11:35;;;;;;;7.25;1.15;;;4.90;99.90;;;;;;5023589;28;20022;-73
2023/02/24 00:14:04;;;;;;;6.95;1.20;;;5.00;99.90;;;;;;5023430;28;20052;-73
2023/02/24 00:16:31;;;;;;;10.10;1.30;;;5.00;99.90;;;;;;5019626;28;20033;-76
2023/02/24 00:18:57;;;;;;;6.68;1.40;;;5.00;99.90;;;;;;5016347;28;20052;-77
2023/02/24 00:21:23;;;;;;;5.65;1.20;;;5.00;99.90;;;;;;5014873;28;20025;-73
2023/02/24 00:23:48;;;;;;;8.48;1.05;;;5.00;99.90;;;;;;5018981;28;20030;-73
2023/02/24 00:26:15;;;;;;;11.43;1.70;;;5.00;99.90;;;;;;4999887;28;20128;-76
2023/02/24 00:28:43;;;;;;;10.43;1.17;;;5.00;99.90;;;;;;5016599;28;20034;-75
2023/02/24 00:31:19;;;;;;;6.20;1.00;;;5.00;99.90;;;;;;5018537;28;20040;-76
2023/02/24 00:33:46;;;;;;;9.15;1.65;;;5.00;99.90;;;;;;5021237;28;20040;-75
2023/02/24 00:36:22;;;;;;;9.65;1.40;;;5.00;99.90;;;;;;5019250;28;20025;-75
2023/02/24 00:38:56;;;;;;;8.35;1.35;;;5.00;99.90;;;;;;5017090;28;20033;-75
2023/02/24 00:41:28;;;;;;;12.05;1.40;;;5.00;99.90;;;;;;4999802;28;20133;-76
2023/02/24 00:43:56;;;;;;;10.30;1.20;;;5.00;99.90;;;;;;5018625;28;20389;-73
2023/02/24 00:46:24;;;;;;;9.40;1.38;;;5.00;99.90;;;;;;5019543;28;20064;-76
2023/02/24 00:48:55;;;;;;;8.40;1.52;;;5.00;99.90;;;;;;5020144;28;20041;-76
2023/02/24 00:51:23;;;;;;;13.43;1.65;;;5.00;99.90;;;;;;5019749;28;20026;-76
2023/02/24 00:53:55;;;;;;;9.00;1.10;;;5.00;99.90;;;;;;5019054;28;20045;-73
2023/02/24 00:56:29;;;;;;;9.63;1.42;;;5.00;99.90;;;;;;5019366;28;20026;-76
2023/02/24 00:58:57;;;;;;;8.68;1.27;;;5.00;99.90;;;;;;5019414;28;20036;-73
2023/02/24 01:01:31;;;;;;;11.93;1.95;;;4.90;99.90;;;;;;5017843;28;20026;-76
2023/02/24 01:04:00;;;;;;;9.65;1.50;;;5.00;99.90;;;;;;5017995;28;20018;-78
2023/02/24 01:06:28;;;;;;;9.05;1.60;;;5.00;99.90;;;;;;5002687;28;20026;-76
2023/02/24 01:08:54;;;;;;;8.90;1.30;;;5.00;99.90;;;;;;5020043;28;20065;-73
2023/02/24 01:14:12;;;;;;;9.38;1.60;;;5.00;99.90;;;;;;5019567;28;20464;-75
2023/02/24 01:16:40;;;;;;;8.40;1.35;;;4.90;99.90;;;;;;5019309;28;20116;-77
2023/02/24 01:19:06;;;;;;;9.02;1.30;;;4.90;99.90;;;;;;5015919;28;20029;-73
2023/02/24 01:21:33;;;;;;;8.60;1.20;;;5.00;99.90;;;;;;5018109;28;20033;-74
2023/02/24 01:23:59;;;;;;;9.30;1.48;;;4.90;99.90;;;;;;5021810;28;20570;-75
2023/02/24 01:26:25;;;;;;;8.43;1.45;;;5.00;99.90;;;;;;5018210;28;20026;-73
2023/02/24 01:28:53;;;;;;;5.30;0.90;;;5.00;99.90;;;;;;5020958;28;20030;-76
2023/02/24 01:31:20;;;;;;;12.48;1.75;;;5.00;99.90;;;;;;5017349;28;20029;-72
2023/02/24 01:33:50;;;;;;;9.63;1.33;;;5.00;99.90;;;;;;5033157;28;20099;-75
2023/02/24 01:36:24;;;;;;;8.95;2.13;;;5.00;99.90;;;;;;5018761;28;20029;-76
2023/02/24 01:38:50;;;;;;;12.65;1.73;;;5.00;99.90;;;;;;5021618;28;20026;-76
2023/02/24 01:41:22;;;;;;;12.38;1.20;;;5.00;99.90;;;;;;5017869;28;20461;-75
2023/02/24 01:43:57;;;;;;;6.20;1.58;;;4.90;99.90;;;;;;5019163;28;20040;-73
2023/02/24 01:46:31;;;;;;;7.95;1.20;;;5.00;99.90;;;;;;5021702;28;20033;-73
2023/02/24 01:49:12;;;;;;;7.13;1.23;;;5.00;99.90;;;;;;5018201;28;20037;-73
2023/02/24 01:52:09;;;;;;;7.72;1.15;;;4.90;99.90;;;;;;5015774;28;20034;-73
2023/02/24 01:54:41;;;;;;;10.02;1.67;;;4.90;99.90;;;;;;5016855;28;20105;-74
2023/02/24 01:57:09;;;;;;;9.82;2.00;;;4.80;99.90;;;;;;5020259;28;20048;-73
2023/02/24 01:59:35;;;;;;;8.20;1.75;;;4.80;99.90;;;;;;5016685;28;20291;-75
2023/02/24 02:02:06;;;;;;;17.52;1.63;;;4.80;99.90;;;;;;5018983;28;20397;-73
2023/02/24 02:05:04;;;;;;;6.13;1.27;;;4.80;99.90;;;;;;5018644;28;20030;-76
2023/02/24 02:07:30;;;;;;;8.80;1.67;;;4.80;99.90;;;;;;5015887;28;20522;-75
2023/02/24 02:10:02;;;;;;;7.68;1.13;;;4.90;99.90;;;;;;5018163;28;20960;-74
2023/02/24 02:12:35;;;;;;;7.80;1.27;;;4.80;99.90;;;;;;5019863;28;20389;-73
2023/02/24 02:15:03;;;;;;;8.80;1.30;;;4.80;99.90;;;;;;5021074;28;20026;-76
2023/02/24 02:17:58;;;;;;;10.32;1.45;;;4.80;99.90;;;;;;5017180;28;20587;-76
2023/02/24 02:21:02;;;;;;;9.65;1.35;;;4.80;99.90;;;;;;5018710;28;20025;-74
2023/02/24 02:23:42;;;;;;;8.25;1.38;;;4.80;99.90;;;;;;5019903;28;20029;-76
2023/02/24 02:26:43;;;;;;;10.35;1.58;;;4.80;99.90;;;;;;5000515;28;20068;-76
2023/02/24 02:29:47;;;;;;;8.93;1.30;;;4.80;99.90;;;;;;5011538;28;20045;-73
2023/02/24 02:32:31;;;;;;;11.57;1.30;;;4.80;99.90;;;;;;5002352;28;20080;-76
2023/02/24 02:35:12;;;;;;;9.02;1.90;;;4.80;99.90;;;;;;5001512;28;20382;-76
2023/02/24 02:38:02;;;;;;;7.32;1.13;;;4.70;99.90;;;;;;5019367;28;20524;-77
2023/02/24 02:40:51;;;;;;;7.47;1.27;;;4.70;99.90;;;;;;5015825;28;20036;-76
2023/02/24 02:43:32;;;;;;;7.03;1.17;;;4.60;99.90;;;;;;5003678;28;20137;-77
2023/02/24 02:46:13;;;;;;;6.38;1.60;;;4.70;99.90;;;;;;5017384;28;20078;-77
2023/02/24 02:48:48;;;;;;;8.43;1.20;;;4.60;99.90;;;;;;5017618;28;20037;-77
2023/02/24 02:51:32;;;;;;;7.68;1.17;;;4.60;99.90;;;;;;5017267;28;20037;-76
2023/02/24 02:54:02;;;;;;;5.80;1.20;;;4.60;99.90;;;;;;5016676;28;20029;-77
2023/02/24 02:56:35;;;;;;;6.20;1.25;;;4.60;99.90;;;;;;5015207;28;20026;-76
2023/02/24 02:59:04;;;;;;;9.95;1.45;;;4.60;99.90;;;;;;5013722;28;20160;-76
2023/02/24 03:01:35;;;;;;;8.15;1.50;;;4.60;99.90;;;;;;5013233;28;20117;-76
2023/02/24 03:04:05;;;;;;;8.15;1.50;;;4.60;99.90;;;;;;5020173;28;20057;-73
2023/02/24 03:06:46;;;;;;;7.88;1.10;;;4.60;99.90;;;;;;5017032;28;20087;-72
2023/02/24 03:09:21;;;;;;;9.38;1.58;;;4.60;99.90;;;;;;5001832;28;20029;-73
2023/02/24 03:11:54;;;;;;;7.70;1.27;;;4.60;99.90;;;;;;5016611;28;20048;-73
2023/02/24 03:14:24;;;;;;;12.82;1.40;;;4.70;99.90;;;;;;5015885;28;20131;-73
2023/02/24 03:16:52;;;;;;;11.82;1.13;;;4.70;99.90;;;;;;5016025;28;20032;-75
2023/02/24 03:19:25;;;;;;;9.77;2.05;;;4.70;99.90;;;;;;5018704;28;20117;-76
2023/02/24 03:22:11;;;;;;;8.10;1.52;;;4.70;99.90;;;;;;5014749;28;20033;-75
2023/02/24 03:24:38;;;;;;;11.02;1.30;;;4.70;99.90;;;;;;5015866;28;20490;-76
2023/02/24 03:27:35;;;;;;;8.57;1.40;;;4.70;99.90;;;;;;5017399;28;20537;-73
2023/02/24 03:30:11;;;;;;;9.52;1.35;;;4.70;99.90;;;;;;5019135;28;20034;-73
2023/02/24 03:32:56;;;;;;;9.90;1.35;;;4.70;99.90;;;;;;5014231;28;20105;-76
2023/02/24 03:35:27;;;;;;;7.18;1.10;;;4.70;99.90;;;;;;5016271;28;20036;-72
2023/02/24 03:37:54;;;;;;;;;;;4.70;99.90;;;;;;5018377;28;20075;-76
2023/02/24 03:40:21;;;;;;;8.85;1.60;;;4.70;99.90;;;;;;5000720;28;19909;-73
2023/02/24 03:42:51;;;;;;;9.57;1.75;;;4.70;99.90;;;;;;5017958;28;20501;-73
2023/02/24 03:45:17;;;;;;;6.43;1.00;;;4.70;99.90;;;;;;5017528;28;20037;-75
2023/02/24 03:47:45;;;;;;;8.93;1.38;;;4.70;99.90;;;;;;5017624;28;20140;-75
2023/02/24 03:50:20;;;;;;;9.27;1.10;;;4.70;99.90;;;;;;5001033;28;20485;-75
2023/02/24 03:53:26;;;;;;;6.97;1.25;;;4.60;99.90;;;;;;5016930;28;20053;-73
2023/02/24 03:56:14;;;;;;;9.75;1.20;;;4.60;99.90;;;;;;5016517;28;20540;-76
2023/02/24 03:58:55;;;;;;;7.45;1.20;;;4.70;99.90;;;;;;5000362;28;20060;-76
2023/02/24 04:01:48;;;;;;;9.63;1.30;;;4.60;99.90;;;;;;5014810;28;20053;-73
2023/02/24 04:04:26;;;;;;;11.85;1.52;;;4.60;99.90;;;;;;5022718;28;20056;-74
2023/02/24 04:07:25;;;;;;;10.07;1.52;;;4.60;99.90;;;;;;5019850;28;20083;-73
2023/02/24 04:10:08;;;;;;;7.15;1.20;;;4.60;99.90;;;;;;5018253;28;20041;-76
2023/02/24 04:13:38;;;;;;;5.78;1.10;;;4.60;99.90;;;;;;5015721;28;20052;-73
2023/02/24 04:16:26;;;;;;;9.75;1.27;;;4.60;99.90;;;;;;4951602;28;20038;-76
2023/02/24 04:19:01;;;;;;;7.97;1.30;;;4.60;99.90;;;;;;5017267;28;20690;-76
2023/02/24 04:21:30;;;;;;;5.97;1.23;;;4.60;99.90;;;;;;5017863;28;20026;-73
2023/02/24 04:23:59;;;;;;;7.90;1.27;;;4.60;99.90;;;;;;5015105;28;20871;-73
2023/02/24 04:26:28;;;;;;;8.35;1.80;;;4.60;99.90;;;;;;5015390;28;20037;-76
2023/02/24 04:28:55;;;;;;;5.95;1.13;;;4.50;99.90;;;;;;5013833;28;20111;-73
2023/02/24 04:31:23;;;;;;;4.50;1.05;;;4.50;99.90;;;;;;5013836;28;20028;-77
2023/02/24 04:33:49;;;;;;;7.15;1.30;;;4.50;99.90;;;;;;5016717;28;20083;-73
2023/02/24 04:36:16;;;;;;;6.07;1.20;;;4.50;99.90;;;;;;5018995;28;20489;-75
2023/02/24 04:38:44;;;;;;;5.13;1.05;;;4.50;99.90;;;;;;5015784;28;20045;-72
2023/02/24 04:41:11;;;;;;;8.45;1.08;;;4.50;99.90;;;;;;5016380;28;20083;-76
2023/02/24 04:43:37;;;;;;;8.45;1.00;;;4.50;99.90;;;;;;5018786;28;20041;-73
2023/02/24 04:46:06;;;;;;;7.30;1.52;;;4.50;99.90;;;;;;5018399;28;20022;-72
2023/02/24 04:48:35;;;;;;;7.93;1.25;;;4.50;99.90;;;;;;5014166;28;20029;-73
2023/02/24 04:51:02;;;;;;;5.95;1.45;;;4.50;99.90;;;;;;5013732;28;20616;-75
2023/02/24 04:53:28;;;;;;;8.30;1.20;;;4.50;99.90;;;;;;5013723;28;20095;-73
2023/02/24 04:55:55;;;;;;;10.93;1.40;;;4.50;99.90;;;;;;5017225;28;20117;-73
2023/02/24 04:58:28;;;;;;;6.93;1.20;;;4.50;99.90;;;;;;5013945;28;20033;-73
2023/02/24 05:00:54;;;;;;;9.70;1.42;;;4.50;99.90;;;;;;5012101;28;20028;-76
2023/02/24 05:03:26;;;;;;;7.22;1.10;;;4.50;99.90;;;;;;4996916;28;20025;-73
2023/02/24 05:06:01;;;;;;;6.65;1.00;;;4.40;99.90;;;;;;5016526;28;20033;-75
2023/02/24 05:08:29;;;;;;;8.90;2.00;;;4.40;99.90;;;;;;5013103;28;20045;-75
2023/02/24 05:10:57;;;;;;;3.45;1.17;;;4.40;99.90;;;;;;5015841;28;20026;-73
2023/02/24 05:13:26;;;;;;;4.97;1.42;;;4.40;99.90;;;;;;5017662;28;20095;-74
2023/02/24 05:15:53;;;;;;;5.88;1.20;;;4.40;99.90;;;;;;5015082;28;20037;-73
2023/02/24 05:18:24;;;;;;;4.50;1.13;;;4.30;99.90;;;;;;5014714;28;20025;-74
2023/02/24 05:23:44;;;;;;;10.93;1.63;;;4.30;99.90;;;;;;5014183;28;20071;-73
2023/02/24 05:26:16;;;;;;;6.63;1.45;;;4.30;99.90;;;;;;5017799;28;20028;-73
2023/02/24 05:28:45;;;;;;;10.82;2.17;;;4.30;99.90;;;;;;5018255;28;20029;-72
2023/02/24 05:31:14;;;;;;;9.05;1.08;;;4.30;99.90;;;;;;5015113;28;20038;-76
2023/02/24 05:33:45;;;;;;;9.23;1.42;;;4.30;99.90;;;;;;5014376;28;20087;-73
2023/02/24 05:36:16;;;;;;;5.70;1.25;;;4.30;99.90;;;;;;5017740;28;20034;-72
2023/02/24 05:38:45;;;;;;;;;;;4.30;99.90;;;;;;5018448;28;20073;-75
2023/02/24 05:41:16;;;;;;;10.07;1.42;;;4.30;99.90;;;;;;5036226;28;19917;-74
2023/02/24 05:43:51;;;;;;;6.38;1.48;;;4.30;99.90;;;;;;5016861;28;20038;-75
2023/02/24 05:46:18;;;;;;;12.13;1.60;;;4.30;99.90;;;;;;5017008;28;20033;-76
2023/02/24 05:48:45;;;;;;;9.43;1.63;;;4.40;99.90;;;;;;5000034;28;20056;-73
2023/02/24 05:51:12;;;;;;;8.70;1.52;;;4.40;99.90;;;;;;5018306;28;20424;-73
2023/02/24 05:53:41;;;;;;;5.55;1.60;;;4.40;99.90;;;;;;5019582;28;20030;-75
2023/02/24 05:56:10;;;;;;;3.63;1.10;;;4.30;99.90;;;;;;5020117;28;20025;-73
2023/02/24 05:58:39;;;;;;;7.28;1.33;;;4.40;99.90;;;;;;5016357;28;20047;-76
2023/02/24 06:01:14;;;;;;;5.80;0.95;;;4.30;99.90;;;;;;5015083;28;20099;-76
2023/02/24 06:03:46;;;;;;;8.20;1.40;;;4.30;99.90;;;;;;5014051;28;20026;-75
2023/02/24 06:06:15;;;;;;;8.10;1.50;;;4.30;99.90;;;;;;4999101;28;20022;-74
2023/02/24 06:08:50;;;;;;;5.97;1.40;;;4.30;99.90;;;;;;5000593;28;20110;-76
2023/02/24 06:11:19;;;;;;;6.75;1.13;;;4.40;99.90;;;;;;5018820;28;20040;-77
2023/02/24 06:13:48;;;;;;;10.07;1.48;;;4.40;99.90;;;;;;5019676;28;20619;-75
2023/02/24 06:16:15;;;;;;;10.48;1.30;;;4.40;99.90;;;;;;5014175;28;20513;-72
2023/02/24 06:18:43;;;;;;;8.10;1.30;;;4.40;99.90;;;;;;5016728;28;20029;-72
2023/02/24 06:21:11;;;;;;;6.68;1.50;;;4.30;99.90;;;;;;5013970;28;20025;-72
2023/02/24 06:23:40;;;;;;;7.88;1.50;;;4.30;99.90;;;;;;5014997;28;20025;-74
2023/02/24 06:26:18;;;;;;;7.30;1.40;;;4.30;99.90;;;;;;5005596;28;20029;-71
2023/02/24 06:28:45;;;;;;;9.52;1.52;;;4.20;99.90;;;;;;5016378;28;20033;-73
2023/02/24 06:31:12;;;;;;;11.75;2.72;;;4.20;99.90;;;;;;5015710;28;20025;-74
2023/02/24 06:33:40;;;;;;;12.20;1.67;;;4.10;99.90;;;;;;5017543;28;20025;-72
2023/02/24 06:36:07;;;;;;;6.97;1.55;;;4.10;99.90;;;;;;5015667;28;20044;-73
2023/02/24 06:38:35;;;;;;;12.00;2.05;;;4.10;99.90;;;;;;5011573;28;20029;-74
2023/02/24 06:41:03;;;;;;;6.70;1.70;;;4.00;99.90;;;;;;5017332;28;20025;-71
2023/02/24 06:43:31;;;;;;;12.20;1.73;;;4.00;99.90;;;;;;4997789;28;20021;-72
2023/02/24 06:46:00;;;;;;;4.72;1.52;;;4.00;99.90;;;;;;5003401;28;20497;-72
2023/02/24 06:48:27;;;;;;;7.18;1.73;;;3.90;99.90;;;;;;5014351;28;20037;-74
2023/02/24 06:50:55;;;;;;;6.35;1.50;;;3.90;99.90;;;;;;5010293;28;20054;-73
2023/02/24 06:53:22;;;;;;;5.60;1.33;;;3.90;99.90;;;;;;5017967;28;20026;-72
2023/02/24 06:55:48;;;;;;;6.70;1.42;;;3.90;99.90;;;;;;5012150;28;20029;-74
2023/02/24 06:58:18;;;;;;;6.22;1.58;;;3.80;99.90;;;;;;5011902;28;20100;-74
2023/02/24 07:01:06;;;;;;;10.75;1.73;;;3.80;99.90;;;;;;4999525;28;20061;-75
2023/02/24 07:04:01;;;;;;;6.85;1.95;;;3.70;99.90;;;;;;5013105;28;20097;-75
2023/02/24 07:06:28;;;;;;;9.20;2.05;;;3.70;99.90;;;;;;5013406;28;20026;-76
2023/02/24 07:08:56;;;;;;;8.57;1.73;;;3.80;99.90;;;;;;5011713;28;20509;-78
2023/02/24 07:11:24;;;;;;;8.82;1.70;;;3.80;99.90;;;;;;4996172;28;20045;-72
2023/02/24 07:13:52;;;;;;;11.93;2.00;;;3.70;99.90;;;;;;5014998;28;20030;-72
2023/02/24 07:16:27;;;;;;;6.13;1.70;;;3.70;99.90;;;;;;5012738;28;20029;-73
2023/02/24 07:18:58;;;;;;;10.52;2.00;;;3.70;99.90;;;;;;4995863;28;20091;-75
2023/02/24 07:21:26;;;;;;;6.45;1.70;;;3.60;99.90;;;;;;4999578;28;20041;-77
2023/02/24 07:23:55;;;;;;;10.02;1.75;;;3.60;99.90;;;;;;5007220;28;20033;-75
2023/02/24 07:26:24;;;;;;;6.22;2.25;;;3.60;99.90;;;;;;5013222;28;20037;-75
2023/02/24 07:28:53;;;;;;;7.88;1.95;;;3.60;99.90;;;;;;5013152;28;20036;-75
2023/02/24 07:31:22;;;;;;;9.57;2.03;;;3.60;99.90;;;;;;5013367;28;20030;-73
2023/02/24 07:33:50;;;;;;;9.45;2.10;;;3.60;99.90;;;;;;5014699;28;20714;-74
2023/02/24 07:36:21;;;;;;;6.70;1.33;;;3.60;99.90;;;;;;5009267;28;20048;-74
2023/02/24 07:38:51;;;;;;;10.73;2.17;;;3.60;99.90;;;;;;5016080;28;20029;-74
2023/02/24 07:41:21;;;;;;;8.93;2.33;;;3.60;99.90;;;;;;5022374;28;20051;-74
2023/02/24 07:43:51;;;;;;;6.80;1.85;;;3.60;99.90;;;;;;4999003;28;20057;-75
2023/02/24 07:46:20;;;;;;;7.23;1.53;;;3.60;99.90;;;;;;5014150;28;20350;-75
2023/02/24 07:48:45;;;;;;;7.45;1.77;;;3.50;99.90;;;;;;5016016;28;20405;-74
2023/02/24 07:51:15;;;;;;;9.13;2.40;;;3.50;99.90;;;;;;5012142;28;20087;-73
2023/02/24 07:53:42;;;;;;;7.95;3.05;;;3.50;99.90;;;;;;5001007;28;20025;-75
2023/02/24 07:56:12;;;;;;;9.32;3.08;;;3.40;99.90;;;;;;5016581;28;20041;-74
2023/02/24 07:58:49;;;;;;;11.13;2.70;;;3.50;99.90;;;;;;5013162;28;20029;-75
2023/02/24 08:01:21;;;;;;;13.82;2.45;;;3.50;99.90;;;;;;5014328;28;20026;-76
2023/02/24 08:04:11;;;;;;;10.05;2.08;;;3.50;99.90;;;;;;5010383;28;20045;-77
2023/02/24 08:06:44;;;;;;;5.85;2.22;;;3.50;99.90;;;;;;5012958;28;20026;-74
2023/02/24 08:09:19;;;;;;;9.70;2.20;;;3.50;99.90;;;;;;5002238;28;20053;-74
2023/02/24 08:11:52;;;;;;;8.00;2.03;;;3.50;99.90;;;;;;5017585;28;20079;-76
2023/02/24 08:14:23;;;;;;;4.90;1.88;;;3.50;99.90;;;;;;5024983;28;20030;-75
2023/02/24 08:16:58;;;;;;;5.72;1.48;;;3.40;99.90;;;;;;5005205;28;20030;-76
2023/02/24 08:19:38;;;;;;;6.80;1.85;;;3.40;99.90;;;;;;4996715;28;20040;-75
2023/02/24 08:22:18;;;;;;;5.38;1.80;;;3.40;99.90;;;;;;5013818;28;20462;-76
2023/02/24 08:24:51;;;;;;;3.60;1.80;;;3.50;99.90;;;;;;5012690;28;20078;-76
2023/02/24 08:27:20;;;;;;;5.13;2.00;;;3.40;99.90;;;;;;5001805;28;20030;-76
2023/02/24 08:29:58;;;;;;;9.63;2.00;;;3.40;99.90;;;;;;5010006;28;20083;-76
2023/02/24 08:32:32;;;;;;;9.80;2.38;;;3.40;99.90;;;;;;5012749;28;20067;-75
2023/02/24 08:35:15;;;;;;;6.75;2.35;;;3.40;99.90;;;;;;4998273;28;20029;-74
2023/02/24 08:37:47;;;;;;;10.77;4.28;;;3.40;99.90;;;;;;4995574;28;20030;-74
2023/02/24 08:43:18;;;;;;;12.02;4.95;;;3.40;99.90;;;;;;5014653;28;20037;-74
2023/02/24 08:45:50;;;;;;;10.63;5.78;;;3.30;99.90;;;;;;5015933;28;20112;-75
2023/02/24 08:48:25;;;;;;;9.48;5.82;;;3.40;99.90;;;;;;5001745;28;20049;-75
2023/02/24 08:51:21;;;;;;;10.18;5.80;;;3.40;99.90;;;;;;4993615;28;20116;-76
2023/02/24 08:53:52;;;;;;;11.07;5.55;;;3.40;99.90;;;;;;4998171;28;20281;-74
2023/02/24 08:56:25;;;;;;;10.88;6.50;;;3.40;99.90;;;;;;5004164;28;20033;-74
2023/02/24 08:59:04;;;;;;;10.90;5.65;;;3.40;99.90;;;;;;5020277;28;20082;-75
2023/02/24 09:01:38;;;;;;;11.25;5.43;;;3.40;99.90;;;;;;5018382;28;20112;-74
2023/02/24 09:04:07;;;;;;;11.05;5.53;;;3.40;99.90;;;;;;5018011;28;20018;-76
2023/02/24 09:06:35;;;;;;;13.05;6.40;;;3.40;99.90;;;;;;5017208;28;20028;-74
2023/02/24 09:09:16;;;;;;;13.63;5.47;;;3.40;99.90;;;;;;5017391;28;20025;-74
2023/02/24 09:11:46;;;;;;;;;;;3.40;99.90;;;;;;5017513;28;20188;-75
2023/02/24 09:14:16;;;;;;;10.35;5.22;;;3.40;99.90;;;;;;5018294;28;19909;-74
2023/02/24 09:17:02;;;;;;;11.80;5.32;;;3.40;99.90;;;;;;5021776;28;20033;-75
2023/02/24 09:20:22;;;;;;;11.38;4.75;;;3.40;99.90;;;;;;5007373;28;20030;-75
2023/02/24 09:22:31;;;;;;;7.78;4.15;;;3.50;99.90;;;;;;5024288;28;20037;-74
2023/02/24 09:25:16;;;;;;;;;;;3.50;99.90;;;;;;5028811;28;20033;-75
2023/02/24 09:28:06;;;;;;;13.18;4.22;;;3.40;99.90;;;;;;5023903;28;19909;-76
2023/02/24 09:30:37;;;;;;;8.68;4.15;;;3.50;99.90;;;;;;5019549;28;20026;-75
2023/02/24 09:33:19;;;;;;;11.63;4.47;;;3.40;99.90;;;;;;5015229;28;20030;-75
2023/02/24 09:35:45;;;;;;;8.88;3.67;;;3.40;99.90;;;;;;5020907;28;20034;-77
2023/02/24 09:38:16;;;;;;;4.95;3.90;;;3.40;99.90;;;;;;5018152;28;20037;-75
2023/02/24 09:40:50;;;;;;;7.50;3.92;;;3.40;99.90;;;;;;5019686;28;20691;-75
2023/02/24 09:43:23;;;;;;;7.65;3.80;;;3.40;99.90;;;;;;5018562;28;20374;-75
2023/02/24 09:46:13;;;;;;;7.38;3.83;;;3.40;99.90;;;;;;5019665;28;20069;-74
2023/02/24 09:49:04;;;;;;;6.63;4.25;;;3.50;99.90;;;;;;5017288;28;20068;-73
2023/02/24 09:51:41;;;;;;;7.68;4.43;;;3.50;99.90;;;;;;5020061;28;20108;-74
2023/02/24 09:54:23;;;;;;;8.35;4.45;;;3.50;99.90;;;;;;5004352;28;20033;-73
2023/02/24 09:57:09;;;;;;;9.10;5.13;;;3.50;99.90;;;;;;5016165;28;20052;-73
2023/02/24 10:00:23;;;;;;;8.13;4.38;;;3.70;99.90;;;;;;5014878;28;20033;-75
2023/02/24 10:03:19;;;;;;;9.95;5.25;;;3.70;99.90;;;;;;5019270;28;20512;-73
2023/02/24 10:06:10;;;;;;;8.25;5.22;;;3.70;99.90;;;;;;4995863;28;20037;-73
2023/02/24 10:08:41;;;;;;;12.35;5.15;;;3.70;99.90;;;;;;5015868;28;20564;-75
2023/02/24 10:11:11;;;;;;;8.85;4.97;;;3.70;99.90;;;;;;5019049;28;20040;-74
2023/02/24 10:13:50;;;;;;;10.82;5.10;;;3.70;99.90;;;;;;5017617;28;20026;-75
2023/02/24 10:16:22;;;;;;;8.70;5.38;;;3.70;99.90;;;;;;5023191;28;20033;-78
2023/02/24 10:19:15;;;;;;;10.90;5.47;;;3.70;99.90;;;;;;5025028;28;20114;-75
2023/02/24 10:21:48;;;;;;;12.55;5.07;;;3.70;99.90;;;;;;5015611;28;20022;-75
2023/02/24 10:24:35;;;;;;;8.45;4.70;;;3.80;99.90;;;;;;5015476;28;20018;-74
2023/02/24 10:27:07;;;;;;;9.48;4.47;;;3.80;99.90;;;;;;5019035;28;20029;-74
2023/02/24 10:29:45;;;;;;;8.90;5.80;;;3.90;99.90;;;;;;5003923;28;20026;-73
2023/02/24 10:32:22;;;;;;;7.82;4.03;;;3.90;99.90;;;;;;5013820;28;20549;-74
2023/02/24 10:34:52;;;;;;;6.35;4.75;;;3.90;99.90;;;;;;5015013;28;20060;-73
2023/02/24 10:37:21;;;;;;;9.55;4.65;;;3.90;99.90;;;;;;5019768;28;20068;-74
2023/02/24 10:39:48;;;;;;;8.43;4.15;;;4.00;99.90;;;;;;5019652;28;20068;-74
2023/02/24 10:42:33;;;;;;;6.55;4.38;;;4.00;99.90;;;;;;5012472;28;20025;-74
2023/02/24 10:45:16;;;;;;;8.45;4.07;;;3.90;99.90;;;;;;5024322;28;20026;-75
2023/02/24 10:47:56;;;;;;;5.97;4.05;;;3.90;99.90;;;;;;5017087;28;20080;-74
2023/02/24 10:50:30;;;;;;;6.80;4.20;;;3.90;99.90;;;;;;5006828;28;20058;-74
2023/02/24 10:53:10;;;;;;;7.50;3.85;;;3.90;99.90;;;;;;5014892;28;20065;-74
2023/02/24 10:58:48;;;;;;;5.90;3.58;;;4.00;99.90;;;;;;5013701;28;20030;-74
2023/02/24 11:01:26;;;;;;;7.28;4.07;;;4.00;99.90;;;;;;5013859;28;20467;-75
2023/02/24 11:04:00;;;;;;;6.82;3.70;;;4.00;99.90;;;;;;5012859;28;20029;-75
2023/02/24 11:17:49;;;;;;;4.97;3.22;;;4.20;99.90;;;;;;5015222;28;20081;-76
2023/02/24 11:20:27;;;;;;;6.30;3.33;;;4.30;99.90;;;;;;5019206;28;20021;-75
2023/02/24 11:22:54;;;;;;;8.73;3.20;;;4.30;99.90;;;;;;4996204;28;20508;-74
2023/02/24 11:25:34;;;;;;;6.53;3.05;;;4.40;99.90;;;;;;5017759;28;20030;-75
2023/02/24 11:28:04;;;;;;;5.78;3.03;;;4.40;99.90;;;;;;5011073;28;20379;-74
2023/02/24 11:30:52;;;;;;;7.03;3.38;;;4.40;99.90;;;;;;5017380;28;20026;-74
2023/02/24 11:33:41;;;;;;;7.75;3.38;;;4.40;99.90;;;;;;5020350;28;20073;-75
2023/02/24 11:36:23;;;;;;;6.75;2.80;;;4.50;99.90;;;;;;5011884;28;20037;-74
2023/02/24 11:39:21;;;;;;;4.80;3.03;;;4.50;99.90;;;;;;5012408;28;20037;-74
2023/02/24 11:41:54;;;;;;;6.63;3.30;;;4.50;99.90;;;;;;5020819;28;20030;-74
2023/02/24 11:44:27;;;;;;;6.72;3.00;;;4.50;99.90;;;;;;5018765;28;20025;-75
2023/02/24 11:47:01;;;;;;;5.00;3.17;;;4.60;99.90;;;;;;5019251;28;20036;-74
2023/02/24 11:49:49;;;;;;;11.57;3.92;;;4.60;99.90;;;;;;5015208;28;20030;-75
2023/02/24 11:52:26;;;;;;;8.60;3.55;;;4.60;99.90;;;;;;5011746;28;20056;-73
2023/02/24 11:54:56;;;;;;;9.30;3.70;;;4.60;99.90;;;;;;5013949;28;21088;-73
2023/02/24 11:57:40;;;;;;;9.33;3.70;;;4.60;99.90;;;;;;5016427;28;20032;-75
2023/02/24 12:00:19;;;;;;;8.63;3.58;;;4.70;99.90;;;;;;5031978;28;20099;-77
2023/02/24 12:03:05;;;;;;;4.95;3.30;;;4.70;99.90;;;;;;5020405;28;20030;-77
2023/02/24 12:05:38;;;;;;;6.72;3.42;;;4.70;99.90;;;;;;5020879;28;20038;-74
2023/02/24 12:08:29;;;;;;;8.20;3.97;;;4.70;99.90;;;;;;4998387;28;20547;-75
2023/02/24 12:11:04;;;;;;;8.80;4.00;;;4.80;99.90;;;;;;5008348;28;20119;-74
2023/02/24 12:13:50;;;;;;;7.47;3.70;;;4.80;99.90;;;;;;5014060;28;20940;-75
2023/02/24 12:16:44;;;;;;;8.40;3.90;;;4.90;99.90;;;;;;5013222;28;20029;-76
2023/02/24 12:19:50;;;;;;;4.65;3.47;;;5.10;99.90;;;;;;5010541;28;20052;-76
2023/02/24 12:22:17;;;;;;;4.40;3.08;;;5.20;99.90;;;;;;5015670;28;20025;-74
2023/02/24 12:24:50;;;;;;;9.40;3.35;;;5.20;99.90;;;;;;5010711;28;20108;-77
2023/02/24 12:27:35;;;;;;;11.73;3.75;;;5.20;99.90;;;;;;5014894;28;20018;-76
2023/02/24 12:30:47;;;;;;;6.30;3.75;;;5.20;99.90;;;;;;5029198;28;20033;-74
2023/02/24 12:33:31;;;;;;;10.48;3.70;;;5.20;99.90;;;;;;4987677;28;20037;-73
2023/02/24 12:36:14;;;;;;;7.25;3.95;;;5.20;99.90;;;;;;5021605;28;20104;-74
2023/02/24 12:38:52;;;;;;;13.50;3.60;;;5.30;99.90;;;;;;5016089;28;20497;-78
2023/02/24 12:41:52;;;;;;;9.88;4.25;;;5.40;99.90;;;;;;5019875;28;20029;-81
2023/02/24 12:44:23;;;;;;;8.65;4.28;;;5.40;99.90;;;;;;5021387;28;20061;-76
2023/02/24 12:47:30;;;;;;;13.70;4.47;;;5.40;99.90;;;;;;5002590;28;20021;-79
2023/02/24 12:50:15;;;;;;;9.40;4.00;;;5.50;99.90;;;;;;5024293;28;20417;-78
2023/02/24 12:52:56;;;;;;;8.68;3.95;;;5.50;99.90;;;;;;5011042;28;20114;-77
2023/02/24 12:55:50;;;;;;;8.82;4.22;;;5.60;99.90;;;;;;5031265;28;20030;-79
2023/02/24 12:58:21;;;;;;;12.55;4.13;;;5.60;99.90;;;;;;5010031;28;20431;-78
2023/02/24 13:00:57;;;;;;;13.02;4.97;;;5.60;99.90;;;;;;5022973;28;20569;-78
2023/02/24 13:03:47;;;;;;;7.63;3.95;;;5.60;99.90;;;;;;5017240;28;20082;-78
2023/02/24 13:06:39;;;;;;;7.03;4.13;;;5.60;99.90;;;;;;5006457;28;20022;-75
2023/02/24 13:09:10;;;;;;;13.07;5.07;;;5.70;99.90;;;;;;5002841;28;20973;-75
2023/02/24 13:11:57;;;;;;;10.95;4.25;;;5.80;99.90;;;;;;5017076;28;20030;-75
2023/02/24 13:14:27;;;;;;;12.40;4.40;;;5.80;99.90;;;;;;5017166;28;20026;-78
2023/02/24 13:17:11;;;;;;;13.35;4.68;;;5.80;99.90;;;;;;5011233;28;20493;-76
2023/02/24 13:19:40;;;;;;;9.35;3.75;;;5.90;99.90;;;;;;5023158;28;20103;-77
2023/02/24 13:22:12;;;;;;;16.05;5.40;;;5.90;99.90;;;;;;5004300;28;20034;-77
2023/02/24 13:24:54;;;;;;;18.40;4.85;;;5.90;99.90;;;;;;5017350;28;20083;-75
2023/02/24 13:27:24;;;;;;;15.65;4.88;;;5.90;99.90;;;;;;5018787;28;20061;-78
2023/02/24 13:29:56;;;;;;;16.63;4.25;;;5.90;99.90;;;;;;5019378;28;20688;-76
2023/02/24 13:32:30;;;;;;;9.20;4.15;;;5.80;99.90;;;;;;5018802;28;20029;-78
2023/02/24 13:35:03;;;;;;;12.13;4.40;;;5.80;99.90;;;;;;5011237;28;20146;-78
2023/02/24 13:37:38;;;;;;;10.32;4.45;;;5.80;99.90;;;;;;5009640;28;20030;-78
2023/02/24 13:40:22;;;;;;;18.15;4.53;;;5.70;99.90;;;;;;5007998;28;20485;-82
2023/02/24 13:43:03;;;;;;;10.57;4.13;;;5.80;99.90;;;;;;5025033;28;20064;-81
2023/02/24 13:45:34;;;;;;;12.63;4.80;;;5.70;99.90;;;;;;5017588;28;20030;-80
2023/02/24 13:48:16;;;;;;;15.25;4.38;;;5.70;99.90;;;;;;5021312;28;20055;-78
2023/02/24 13:51:19;;;;;;;16.92;4.63;;;5.70;99.90;;;;;;5009386;28;20057;-79
2023/02/24 13:54:06;;;;;;;20.17;3.97;;;5.70;99.90;;;;;;5025760;28;20056;-77
2023/02/24 13:56:51;;;;;;;14.15;2.88;;;5.70;99.90;;;;;;5022100;28;20040;-80
2023/02/24 13:59:29;;;;;;;11.43;2.10;;;5.70;99.90;;;;;;5018519;28;20133;-78
2023/02/24 14:02:24;;;;;;;19.08;2.17;;;5.80;99.90;;;;;;5028004;28;20116;-79